This is the latest recevied packets stored in our database for station/object SBTA-0. If no packets are shown the sender has not sent any packets the latest 24 hours.

If you compare the raw packets with similar data from other websites it may differ (especially the path), the reason is that we are not collecting packets from the same APRS-IS servers. Each APRS-IS server performes duplicate filtering, and which packet that is considered to be a duplicate may differ depending on which APRS-IS server you receive your data from.

1618918266: SBTA-0>APBK10,TCPIP,qAS,SBTA:!2302.41S/04530.96W^Base de Aviacao de Taubate Airport METAR SBTA 201100Z VRB02KT 5000 2000S BR VCFG SCT003 BKN036 17/16 Q1018

1618921852: SBTA-0>APBK10,TCPIP,qAS,SBTA:!2302.41S/04530.96W^Base de Aviacao de Taubate Airport METAR SBTA 201200Z VRB02KT 7000 3000S SCT010 BKN033 19/17 Q1019

1618925463: SBTA-0>APBK10,TCPIP,qAS,SBTA:!2302.41S/04530.96W^Base de Aviacao de Taubate Airport METAR SBTA 201300Z VRB02KT 9000 SCT015 BKN030 21/17 Q1019

1618929052: SBTA-0>APBK10,TCPIP,qAS,SBTA:!2302.41S/04530.96W^Base de Aviacao de Taubate Airport METAR SBTA 201400Z VRB02KT 9999 SCT030 BKN043 22/16 Q1018

1618932659: SBTA-0>APBK10,TCPIP,qAS,SBTA:!2302.41S/04530.96W^Base de Aviacao de Taubate Airport METAR SBTA 201500Z 26005KT 190V300 9999 SCT031 23/16 Q1018

1618936255: SBTA-0>APBK10,TCPIP,qAS,SBTA:!2302.41S/04530.96W^Base de Aviacao de Taubate Airport METAR SBTA 201600Z 24005KT 180V280 9999 -RA BKN030 22/17 Q1017

1618939867: SBTA-0>APBK10,TCPIP,qAS,SBTA:!2302.41S/04530.96W^Base de Aviacao de Taubate Airport METAR SBTA 201700Z 24007KT 210V270 9999 -RA SCT026 BKN043 21/17 Q1017

1618943465: SBTA-0>APBK10,TCPIP,qAS,SBTA:!2302.41S/04530.96W^Base de Aviacao de Taubate Airport METAR SBTA 201800Z 10005KT 060V140 9999 SCT030 22/17 Q1016

1618947041: SBTA-0>APBK10,TCPIP,qAS,SBTA:!2302.41S/04530.96W^Base de Aviacao de Taubate Airport METAR SBTA 201900Z VRB04KT 9999 SCT020 24/18 Q1016

1618950620: SBTA-0>APBK10,TCPIP,qAS,SBTA:!2302.41S/04530.96W^Base de Aviacao de Taubate Airport METAR SBTA 202000Z 18005KT 150V220 9999 FEW021 22/13 Q1016

1618954210: SBTA-0>APBK10,TCPIP,qAS,SBTA:!2302.41S/04530.96W^Base de Aviacao de Taubate Airport METAR SBTA 202100Z 17004KT 9999 FEW021 20/13 Q1017

1618957798: SBTA-0>APBK10,TCPIP,qAS,SBTA:!2302.41S/04530.96W^Base de Aviacao de Taubate Airport METAR SBTA 202200Z 00000KT 9999 BKN048 18/15 Q1017

1618961370: SBTA-0>APBK10,TCPIP,qAS,SBTA:!2302.41S/04530.96W^Base de Aviacao de Taubate Airport METAR SBTA 202300Z 17005KT 130V220 9999 FEW020 SCT036 BKN056 19/14 Q1018

1618964972: SBTA-0>APBK10,TCPIP,qAS,SBTA:!2302.41S/04530.96W^Base de Aviacao de Taubate Airport METAR SBTA 210000Z VRB02KT 9999 FEW048 SCT083 18/15 Q1019

1618968620: SBTA-0>APBK10,TCPIP,qAS,SBTA:!2302.41S/04530.96W^Base de Aviacao de Taubate Airport METAR SBTA 210100Z 00000KT CAVOK 16/15 Q1019

1618972131: SBTA-0>APBK10,TCPIP,qAS,SBTA:!2302.41S/04530.96W^Base de Aviacao de Taubate Airport METAR SBTA 210200Z 16002KT CAVOK 15/14 Q1019

1618975716: SBTA-0>APBK10,TCPIP,qAS,SBTA:!2302.41S/04530.96W^Base de Aviacao de Taubate Airport METAR SBTA 210300Z 00000KT 9999 FEW026 SCT049 14/14 Q1018

1618997348: SBTA-0>APBK10,TCPIP,qAS,SBTA:!2302.41S/04530.96W^Base de Aviacao de Taubate Airport METAR SBTA 210900Z 22004KT 0300 FG VV002 14/14 Q1017

1619000989: SBTA-0>APBK10,TCPIP,qAS,SBTA:!2302.41S/04530.96W^Base de Aviacao de Taubate Airport METAR SBTA 211000Z VRB02KT 1500 0300N BR PRFG SCT002 BKN025 14/14 Q1018

Initial position
Current position
Ruler